sensor_id;sensor_type;location;lat;lon;timestamp;P1;durP1;ratioP1;P2;durP2;ratioP2
57307;SDS011;43152;50.968;18.214;2023-03-01T00:08:20;153.70;;;32.20;;
57307;SDS011;43152;50.968;18.214;2023-03-01T00:18:07;92.90;;;26.20;;
57307;SDS011;43152;50.968;18.214;2023-03-01T00:27:50;94.70;;;24.40;;
57307;SDS011;43152;50.968;18.214;2023-03-01T00:37:32;105.20;;;26.30;;
57307;SDS011;43152;50.968;18.214;2023-03-01T00:47:14;69.20;;;26.40;;
57307;SDS011;43152;50.968;18.214;2023-03-01T00:56:56;72.60;;;22.70;;
57307;SDS011;43152;50.968;18.214;2023-03-01T01:06:48;58.70;;;19.10;;
57307;SDS011;43152;50.968;18.214;2023-03-01T01:16:35;71.90;;;22.70;;
57307;SDS011;43152;50.968;18.214;2023-03-01T01:36:05;73.90;;;24.90;;
57307;SDS011;43152;50.968;18.214;2023-03-01T01:45:55;37.60;;;12.20;;
57307;SDS011;43152;50.968;18.214;2023-03-01T01:56:00;64.40;;;22.90;;
57307;SDS011;43152;50.968;18.214;2023-03-01T02:06:37;90.40;;;26.20;;
57307;SDS011;43152;50.968;18.214;2023-03-01T02:16:22;101.20;;;26.50;;
57307;SDS011;43152;50.968;18.214;2023-03-01T02:36:45;61.80;;;20.90;;
57307;SDS011;43152;50.968;18.214;2023-03-01T02:46:33;58.10;;;19.80;;
57307;SDS011;43152;50.968;18.214;2023-03-01T03:07:43;136.30;;;35.30;;
57307;SDS011;43152;50.968;18.214;2023-03-01T03:17:47;107.90;;;28.30;;
57307;SDS011;43152;50.968;18.214;2023-03-01T03:27:39;94.70;;;24.20;;
57307;SDS011;43152;50.968;18.214;2023-03-01T03:37:40;87.60;;;29.70;;
57307;SDS011;43152;50.968;18.214;2023-03-01T03:47:46;130.30;;;27.00;;
57307;SDS011;43152;50.968;18.214;2023-03-01T03:57:42;63.10;;;23.70;;
57307;SDS011;43152;50.968;18.214;2023-03-01T04:07:33;90.90;;;26.60;;
57307;SDS011;43152;50.968;18.214;2023-03-01T04:17:16;49.90;;;17.00;;
57307;SDS011;43152;50.968;18.214;2023-03-01T04:27:08;63.20;;;18.70;;
57307;SDS011;43152;50.968;18.214;2023-03-01T04:36:52;69.00;;;22.30;;
57307;SDS011;43152;50.968;18.214;2023-03-01T04:46:35;107.50;;;26.10;;
57307;SDS011;43152;50.968;18.214;2023-03-01T04:56:18;61.80;;;19.60;;
57307;SDS011;43152;50.968;18.214;2023-03-01T05:06:12;40.70;;;12.70;;
57307;SDS011;43152;50.968;18.214;2023-03-01T05:16:00;59.40;;;18.60;;
57307;SDS011;43152;50.968;18.214;2023-03-01T05:25:57;81.70;;;24.00;;
57307;SDS011;43152;50.968;18.214;2023-03-01T05:35:44;41.00;;;17.00;;
57307;SDS011;43152;50.968;18.214;2023-03-01T05:45:30;95.30;;;21.40;;
57307;SDS011;43152;50.968;18.214;2023-03-01T05:58:00;161.40;;;32.30;;
57307;SDS011;43152;50.968;18.214;2023-03-01T06:07:47;85.70;;;26.20;;
57307;SDS011;43152;50.968;18.214;2023-03-01T06:17:33;78.90;;;23.40;;
57307;SDS011;43152;50.968;18.214;2023-03-01T06:33:48;152.40;;;39.90;;
57307;SDS011;43152;50.968;18.214;2023-03-01T06:43:32;112.70;;;32.50;;
57307;SDS011;43152;50.968;18.214;2023-03-01T06:53:14;116.40;;;31.60;;
57307;SDS011;43152;50.968;18.214;2023-03-01T07:03:00;60.50;;;21.50;;
57307;SDS011;43152;50.968;18.214;2023-03-01T07:12:46;62.60;;;21.80;;
57307;SDS011;43152;50.968;18.214;2023-03-01T07:22:32;59.70;;;21.40;;
57307;SDS011;43152;50.968;18.214;2023-03-01T07:32:15;75.20;;;25.80;;
57307;SDS011;43152;50.968;18.214;2023-03-01T07:41:58;54.10;;;20.50;;
57307;SDS011;43152;50.968;18.214;2023-03-01T07:51:40;101.60;;;39.90;;
57307;SDS011;43152;50.968;18.214;2023-03-01T08:01:24;81.00;;;27.80;;
57307;SDS011;43152;50.968;18.214;2023-03-01T08:11:09;72.20;;;26.90;;
57307;SDS011;43152;50.968;18.214;2023-03-01T08:21:01;46.40;;;19.00;;
57307;SDS011;43152;50.968;18.214;2023-03-01T08:30:46;59.60;;;23.10;;
57307;SDS011;43152;50.968;18.214;2023-03-01T08:40:28;77.40;;;28.90;;
57307;SDS011;43152;50.968;18.214;2023-03-01T08:50:11;87.00;;;33.10;;
57307;SDS011;43152;50.968;18.214;2023-03-01T08:59:55;31.30;;;10.80;;
57307;SDS011;43152;50.968;18.214;2023-03-01T09:09:38;37.60;;;15.70;;
57307;SDS011;43152;50.968;18.214;2023-03-01T09:19:21;45.80;;;16.70;;
57307;SDS011;43152;50.968;18.214;2023-03-01T09:29:11;38.80;;;12.30;;
57307;SDS011;43152;50.968;18.214;2023-03-01T09:38:55;31.90;;;14.30;;
57307;SDS011;43152;50.968;18.214;2023-03-01T09:49:19;65.30;;;23.80;;
57307;SDS011;43152;50.968;18.214;2023-03-01T10:09:23;44.20;;;18.10;;
57307;SDS011;43152;50.968;18.214;2023-03-01T10:19:41;27.80;;;11.90;;
57307;SDS011;43152;50.968;18.214;2023-03-01T10:29:55;39.00;;;12.80;;
57307;SDS011;43152;50.968;18.214;2023-03-01T10:39:57;40.70;;;17.40;;
57307;SDS011;43152;50.968;18.214;2023-03-01T10:49:52;40.40;;;15.50;;
57307;SDS011;43152;50.968;18.214;2023-03-01T11:00:13;30.50;;;11.80;;
57307;SDS011;43152;50.968;18.214;2023-03-01T11:10:28;34.10;;;13.70;;
57307;SDS011;43152;50.968;18.214;2023-03-01T11:20:35;30.20;;;12.00;;
57307;SDS011;43152;50.968;18.214;2023-03-01T11:30:24;24.90;;;10.70;;
57307;SDS011;43152;50.968;18.214;2023-03-01T11:51:25;28.20;;;12.00;;
57307;SDS011;43152;50.968;18.214;2023-03-01T12:51:54;33.70;;;15.70;;
57307;SDS011;43152;50.968;18.214;2023-03-01T13:12:50;28.80;;;11.40;;
57307;SDS011;43152;50.968;18.214;2023-03-01T13:22:40;24.10;;;10.70;;
57307;SDS011;43152;50.968;18.214;2023-03-01T13:41:02;24.50;;;10.80;;
57307;SDS011;43152;50.968;18.214;2023-03-01T13:50:58;28.20;;;10.50;;
57307;SDS011;43152;50.968;18.214;2023-03-01T14:01:01;11.20;;;3.50;;
57307;SDS011;43152;50.968;18.214;2023-03-01T14:21:46;20.40;;;9.80;;
57307;SDS011;43152;50.968;18.214;2023-03-01T14:31:53;30.00;;;9.40;;
57307;SDS011;43152;50.968;18.214;2023-03-01T14:41:43;22.10;;;9.50;;
57307;SDS011;43152;50.968;18.214;2023-03-01T14:51:39;28.10;;;9.70;;
57307;SDS011;43152;50.968;18.214;2023-03-01T15:01:36;19.40;;;6.80;;
57307;SDS011;43152;50.968;18.214;2023-03-01T15:11:31;31.50;;;7.50;;
57307;SDS011;43152;50.968;18.214;2023-03-01T15:21:24;29.50;;;10.90;;
57307;SDS011;43152;50.968;18.214;2023-03-01T15:31:23;32.50;;;12.60;;
57307;SDS011;43152;50.968;18.214;2023-03-01T15:41:27;27.00;;;12.40;;
57307;SDS011;43152;50.968;18.214;2023-03-01T15:51:42;25.80;;;7.80;;
57307;SDS011;43152;50.968;18.214;2023-03-01T16:01:31;27.40;;;13.10;;
57307;SDS011;43152;50.968;18.214;2023-03-01T16:11:18;49.20;;;15.40;;
57307;SDS011;43152;50.968;18.214;2023-03-01T16:21:18;49.80;;;16.90;;
57307;SDS011;43152;50.968;18.214;2023-03-01T16:31:09;30.20;;;11.00;;
57307;SDS011;43152;50.968;18.214;2023-03-01T16:40:57;38.10;;;14.40;;
57307;SDS011;43152;50.968;18.214;2023-03-01T16:50:40;38.60;;;14.20;;
57307;SDS011;43152;50.968;18.214;2023-03-01T17:00:24;47.80;;;13.30;;
57307;SDS011;43152;50.968;18.214;2023-03-01T17:10:09;47.00;;;16.70;;
57307;SDS011;43152;50.968;18.214;2023-03-01T17:19:54;40.60;;;14.80;;
57307;SDS011;43152;50.968;18.214;2023-03-01T17:29:37;56.40;;;18.60;;
57307;SDS011;43152;50.968;18.214;2023-03-01T17:39:22;41.80;;;20.40;;
57307;SDS011;43152;50.968;18.214;2023-03-01T17:49:09;104.60;;;33.40;;
57307;SDS011;43152;50.968;18.214;2023-03-01T17:58:52;123.10;;;37.30;;
57307;SDS011;43152;50.968;18.214;2023-03-01T18:08:40;89.70;;;29.40;;
57307;SDS011;43152;50.968;18.214;2023-03-01T18:18:26;161.90;;;52.60;;
57307;SDS011;43152;50.968;18.214;2023-03-01T18:28:12;122.40;;;36.90;;
57307;SDS011;43152;50.968;18.214;2023-03-01T18:37:56;253.40;;;59.10;;
57307;SDS011;43152;50.968;18.214;2023-03-01T18:47:41;170.00;;;48.70;;
57307;SDS011;43152;50.968;18.214;2023-03-01T18:57:24;145.60;;;45.40;;
57307;SDS011;43152;50.968;18.214;2023-03-01T19:07:06;156.80;;;41.20;;
57307;SDS011;43152;50.968;18.214;2023-03-01T19:16:51;93.50;;;35.30;;
57307;SDS011;43152;50.968;18.214;2023-03-01T19:26:35;115.30;;;36.10;;
57307;SDS011;43152;50.968;18.214;2023-03-01T19:36:20;189.80;;;51.80;;
57307;SDS011;43152;50.968;18.214;2023-03-01T19:46:07;187.70;;;56.90;;
57307;SDS011;43152;50.968;18.214;2023-03-01T19:55:49;170.20;;;53.20;;
57307;SDS011;43152;50.968;18.214;2023-03-01T20:05:35;131.60;;;37.80;;
57307;SDS011;43152;50.968;18.214;2023-03-01T20:15:20;219.20;;;58.20;;
57307;SDS011;43152;50.968;18.214;2023-03-01T20:25:03;170.50;;;49.90;;
57307;SDS011;43152;50.968;18.214;2023-03-01T20:34:46;124.30;;;35.80;;
57307;SDS011;43152;50.968;18.214;2023-03-01T20:44:28;294.20;;;75.20;;
57307;SDS011;43152;50.968;18.214;2023-03-01T20:54:12;188.00;;;51.10;;
57307;SDS011;43152;50.968;18.214;2023-03-01T21:04:01;197.40;;;49.80;;
57307;SDS011;43152;50.968;18.214;2023-03-01T21:13:44;102.50;;;22.30;;
57307;SDS011;43152;50.968;18.214;2023-03-01T21:23:30;149.40;;;40.30;;
57307;SDS011;43152;50.968;18.214;2023-03-01T21:33:36;151.70;;;33.50;;
57307;SDS011;43152;50.968;18.214;2023-03-01T21:50:52;202.60;;;59.30;;
57307;SDS011;43152;50.968;18.214;2023-03-01T22:00:37;222.00;;;56.20;;
57307;SDS011;43152;50.968;18.214;2023-03-01T22:10:20;188.10;;;52.80;;
57307;SDS011;43152;50.968;18.214;2023-03-01T22:20:09;151.00;;;44.30;;
57307;SDS011;43152;50.968;18.214;2023-03-01T22:29:52;105.10;;;21.70;;
57307;SDS011;43152;50.968;18.214;2023-03-01T22:39:34;119.80;;;39.60;;
57307;SDS011;43152;50.968;18.214;2023-03-01T22:49:17;124.10;;;32.60;;
57307;SDS011;43152;50.968;18.214;2023-03-01T22:59:05;75.60;;;27.60;;
57307;SDS011;43152;50.968;18.214;2023-03-01T23:28:51;49.50;;;16.90;;
57307;SDS011;43152;50.968;18.214;2023-03-01T23:38:46;90.00;;;27.20;;
57307;SDS011;43152;50.968;18.214;2023-03-01T23:48:41;96.70;;;31.00;;
57307;SDS011;43152;50.968;18.214;2023-03-01T23:58:26;104.50;;;27.70;;
